createdAt,value
2023-01-11T00:01:08.460Z,91067.91
2023-01-11T00:04:30.173Z,91067.59
2023-01-11T00:07:52.458Z,91064.66
2023-01-11T00:11:07.569Z,91064.50
2023-01-11T00:14:30.441Z,91069.03
2023-01-11T00:17:52.460Z,91062.63
2023-01-11T00:21:14.476Z,91063.84
2023-01-11T00:24:36.505Z,91054.81
2023-01-11T00:27:58.453Z,91061.38
2023-01-11T00:31:13.583Z,91058.88
2023-01-11T00:34:35.461Z,91067.31
2023-01-11T00:37:57.388Z,91065.28
2023-01-11T00:41:39.471Z,91070.59
2023-01-11T00:45:19.446Z,91069.66
2023-01-11T00:48:34.681Z,91071.50
2023-01-11T00:51:56.414Z,91079.13
2023-01-11T00:55:18.409Z,91078.38
2023-01-11T00:58:33.480Z,91079.81
2023-01-11T01:01:55.404Z,91081.69
2023-01-11T01:05:17.403Z,91082.28
2023-01-11T01:08:39.443Z,91080.59
2023-01-11T01:12:01.398Z,91071.75
2023-01-11T01:15:16.679Z,91074.09
2023-01-11T01:18:38.392Z,91083.00
2023-01-11T01:22:01.530Z,91076.16
2023-01-11T01:25:23.417Z,91070.88
2023-01-11T01:28:38.684Z,91082.88
2023-01-11T01:32:00.407Z,91078.41
2023-01-11T01:35:15.710Z,91074.00
2023-01-11T01:38:37.366Z,91067.00
2023-01-11T01:41:59.397Z,91069.34
2023-01-11T01:45:30.386Z,91079.47
2023-01-11T01:48:57.448Z,91085.09
2023-01-11T01:52:12.493Z,91094.91
2023-01-11T01:55:40.383Z,91096.94
2023-01-11T01:58:57.508Z,91096.19
2023-01-11T02:02:19.510Z,91109.72
2023-01-11T02:05:34.501Z,91106.44
2023-01-11T02:09:00.398Z,91102.38
2023-01-11T02:12:22.363Z,91108.09
2023-01-11T02:15:44.391Z,91107.19
2023-01-11T02:18:59.489Z,91114.53
2023-01-11T02:22:29.369Z,91107.38
2023-01-11T02:25:57.373Z,91115.34
2023-01-11T02:29:13.116Z,91126.59
2023-01-11T02:32:34.393Z,91126.09
2023-01-11T02:35:49.604Z,91116.09
2023-01-11T02:39:17.395Z,91122.84
2023-01-11T02:42:57.331Z,91119.47
2023-01-11T02:46:23.361Z,91129.59
2023-01-11T02:49:49.342Z,91121.34
2023-01-11T02:53:37.318Z,91120.44
2023-01-11T02:57:02.380Z,91115.59
2023-01-11T03:00:25.366Z,91105.91
2023-01-11T03:03:47.390Z,91107.78
2023-01-11T03:07:22.337Z,91118.63
2023-01-11T03:11:02.365Z,91116.63
2023-01-11T03:14:33.354Z,91126.59
2023-01-11T03:17:51.585Z,91121.94
2023-01-11T03:21:32.323Z,91127.91
2023-01-11T03:25:05.367Z,91130.94
2023-01-11T03:28:39.348Z,91126.28
2023-01-11T03:32:30.322Z,91125.25
2023-01-11T03:36:05.292Z,91123.16
2023-01-11T03:39:33.340Z,91133.16
2023-01-11T03:43:15.267Z,91130.91
2023-01-11T03:46:41.359Z,91132.91
2023-01-11T03:50:08.311Z,91131.94
2023-01-11T03:53:31.330Z,91135.69
2023-01-11T03:57:11.352Z,91143.66
2023-01-11T04:00:34.311Z,91143.41
2023-01-11T04:03:56.333Z,91145.13
2023-01-11T04:07:11.873Z,91153.53
2023-01-11T04:10:33.281Z,91160.00
2023-01-11T04:13:55.287Z,91168.72
2023-01-11T04:17:10.434Z,91173.56
2023-01-11T04:20:32.265Z,91175.97
2023-01-11T04:23:54.301Z,91182.56
2023-01-11T04:27:09.513Z,91179.44
2023-01-11T04:30:31.321Z,91182.56
2023-01-11T04:33:46.501Z,91190.78
2023-01-11T04:37:08.336Z,91194.56
2023-01-11T04:40:31.291Z,91203.31
2023-01-11T04:43:46.433Z,91200.47
2023-01-11T04:47:08.286Z,91203.28
2023-01-11T04:50:30.291Z,91203.81
2023-01-11T04:53:53.263Z,91208.47
2023-01-11T04:57:15.302Z,91220.41
2023-01-11T05:00:30.518Z,91220.75
2023-01-11T05:03:52.292Z,91233.22
2023-01-11T05:07:08.213Z,91226.75
2023-01-11T05:10:30.241Z,91233.22
2023-01-11T05:13:52.250Z,91240.59
2023-01-11T05:17:07.352Z,91240.94
2023-01-11T05:20:29.264Z,91245.66
2023-01-11T05:23:51.247Z,91247.78
2023-01-11T05:27:06.508Z,91248.81
2023-01-11T05:30:28.257Z,91247.53
2023-01-11T05:33:43.447Z,91248.22
2023-01-11T05:37:05.304Z,91258.81
2023-01-11T05:40:20.441Z,91263.94
2023-01-11T05:44:03.277Z,91272.53
2023-01-11T05:47:18.429Z,91266.34
2023-01-11T05:50:40.227Z,91271.66
2023-01-11T05:53:55.471Z,91277.56
2023-01-11T05:57:18.236Z,91283.56
2023-01-11T06:00:40.289Z,91284.47
2023-01-11T06:03:55.365Z,91283.44
2023-01-11T06:07:17.261Z,91290.13
2023-01-11T06:10:39.274Z,91291.19
2023-01-11T06:13:54.467Z,91299.03
2023-01-11T06:17:16.258Z,91299.34
2023-01-11T06:20:31.415Z,91297.06
2023-01-11T06:23:54.190Z,91298.41
2023-01-11T06:27:16.245Z,91301.63
2023-01-11T06:30:38.253Z,91298.56
2023-01-11T06:34:00.254Z,91313.50
2023-01-11T06:37:22.205Z,91316.31
2023-01-11T06:40:38.345Z,91312.31
2023-01-11T06:44:00.219Z,91322.44
2023-01-11T06:47:22.208Z,91323.97
2023-01-11T06:50:37.351Z,91328.84
2023-01-11T06:53:59.229Z,91342.78
2023-01-11T06:57:21.171Z,91351.53
2023-01-11T07:00:37.723Z,91352.94
2023-01-11T07:03:59.188Z,91349.38
2023-01-11T07:07:14.428Z,91350.06
2023-01-11T07:10:36.182Z,91361.25
2023-01-11T07:13:51.441Z,91362.72
2023-01-11T07:17:13.177Z,91359.72
2023-01-11T07:20:35.183Z,91356.94
2023-01-11T07:23:50.311Z,91357.59
2023-01-11T07:27:12.165Z,91361.91
2023-01-11T07:30:41.921Z,91363.47
2023-01-11T07:34:07.419Z,91353.50
2023-01-11T07:37:29.657Z,91364.00
2023-01-11T07:40:44.417Z,91364.31
2023-01-11T07:44:06.164Z,91364.59
2023-01-11T07:47:21.456Z,91365.25
2023-01-11T07:50:45.111Z,91376.03
2023-01-11T07:54:09.183Z,91380.91
2023-01-11T07:57:24.284Z,91387.66
2023-01-11T08:00:47.118Z,91384.31
2023-01-11T08:04:09.140Z,91392.19
2023-01-11T08:07:31.161Z,91401.44
2023-01-11T08:10:46.263Z,91412.88
2023-01-11T08:14:26.180Z,91417.59
2023-01-11T08:17:41.307Z,91422.66
2023-01-11T08:21:03.136Z,91431.78
2023-01-11T08:24:25.156Z,91438.28
2023-01-11T08:27:40.776Z,91432.88
2023-01-11T08:31:02.171Z,91433.31
2023-01-11T08:34:17.480Z,91440.84
2023-01-11T08:37:39.151Z,91447.66
2023-01-11T08:40:54.385Z,91449.34
2023-01-11T08:44:22.355Z,91451.16
2023-01-11T08:47:57.139Z,91460.38
2023-01-11T08:51:19.143Z,91458.69
2023-01-11T08:54:34.367Z,91456.03
2023-01-11T08:57:56.153Z,91464.25
2023-01-11T09:01:12.482Z,91456.47
2023-01-11T09:04:34.125Z,91454.66
2023-01-11T09:07:49.325Z,91460.75
2023-01-11T09:11:31.154Z,91465.34
2023-01-11T09:14:46.274Z,91461.56
2023-01-11T09:18:09.123Z,91460.81
2023-01-11T09:21:24.403Z,91465.66
2023-01-11T09:24:46.155Z,91461.25
2023-01-11T09:28:01.289Z,91462.41
2023-01-11T09:31:23.140Z,91463.84
2023-01-11T09:34:46.888Z,91460.69
2023-01-11T09:38:09.072Z,91469.28
2023-01-11T09:41:35.161Z,91475.69
2023-01-11T09:45:06.079Z,91467.09
2023-01-11T09:48:33.253Z,91469.91
2023-01-11T09:51:55.105Z,91480.78
2023-01-11T09:55:22.054Z,91475.50
2023-01-11T09:58:43.294Z,91468.66
2023-01-11T10:02:12.103Z,91461.31
2023-01-11T10:05:38.220Z,91468.81
2023-01-11T10:18:27.482Z,91470.06
2023-01-11T10:20:50.063Z,91468.19
2023-01-11T10:24:15.043Z,91472.88
2023-01-11T10:27:39.176Z,91460.38
2023-01-11T10:31:05.127Z,91467.84
2023-01-11T10:34:48.035Z,91465.84
2023-01-11T10:38:28.073Z,91466.06
2023-01-11T10:42:06.040Z,91462.03
2023-01-11T10:45:32.080Z,91464.38
2023-01-11T10:48:50.205Z,91464.72
2023-01-11T10:52:40.035Z,91461.59
2023-01-11T10:56:02.033Z,91470.84
2023-01-11T10:59:31.671Z,91468.72
2023-01-11T11:03:08.073Z,91463.88
2023-01-11T11:06:32.767Z,91470.63
2023-01-11T11:09:54.045Z,91465.56
2023-01-11T11:13:16.075Z,91462.63
2023-01-11T11:16:31.228Z,91474.63
2023-01-11T11:19:53.101Z,91477.81
2023-01-11T11:23:08.206Z,91479.03
2023-01-11T11:26:31.035Z,91480.38
2023-01-11T11:29:50.159Z,91487.44
2023-01-11T11:33:26.060Z,91475.66
2023-01-11T11:37:14.074Z,91482.31
2023-01-11T11:40:36.644Z,91484.84
2023-01-11T11:43:59.063Z,91484.28
2023-01-11T11:47:15.292Z,91481.44
2023-01-11T11:50:44.763Z,91484.25
2023-01-11T11:54:00.958Z,91491.91
2023-01-11T11:57:30.067Z,91488.28
2023-01-11T12:00:47.555Z,91480.72
2023-01-11T12:04:10.995Z,91495.34
2023-01-11T12:07:53.559Z,91487.28
2023-01-11T12:11:18.017Z,91489.16
2023-01-11T12:14:35.180Z,91488.19
2023-01-11T12:17:57.061Z,91489.41
2023-01-11T12:21:15.015Z,91491.91
2023-01-11T12:24:37.008Z,91484.16
2023-01-11T12:28:03.301Z,91487.28
2023-01-11T12:31:30.977Z,91487.97
2023-01-11T12:35:07.995Z,91490.31
2023-01-11T12:38:29.164Z,91491.63
2023-01-11T12:41:56.953Z,91499.34
2023-01-11T12:45:24.995Z,91495.94
2023-01-11T12:48:46.979Z,91505.06
2023-01-11T12:52:08.107Z,91511.84
2023-01-11T12:55:38.026Z,91508.78
2023-01-11T12:59:05.009Z,91518.06
2023-01-11T13:02:36.344Z,91522.72
2023-01-11T13:05:57.973Z,91517.59
2023-01-11T13:09:14.853Z,91520.00
2023-01-11T13:12:37.981Z,91533.34
2023-01-11T13:16:06.915Z,91538.50
2023-01-11T13:19:32.985Z,91536.84
2023-01-11T13:23:08.459Z,91542.50
2023-01-11T13:26:42.032Z,91543.41
2023-01-11T13:29:59.939Z,91539.09
2023-01-11T13:33:27.006Z,91542.75
2023-01-11T13:36:47.539Z,91538.31
2023-01-11T13:40:29.213Z,91555.63
2023-01-11T13:43:59.997Z,91550.00
2023-01-11T13:47:25.944Z,91544.69
2023-01-11T13:50:46.913Z,91556.09
2023-01-11T13:54:17.960Z,91547.09
2023-01-11T13:58:11.998Z,91548.19
2023-01-11T14:01:31.070Z,91557.69
2023-01-11T14:04:59.934Z,91556.56
2023-01-11T14:08:15.042Z,91558.28
2023-01-11T14:11:54.912Z,91567.91
2023-01-11T14:15:26.572Z,91556.75
2023-01-11T14:19:02.949Z,91565.44
2023-01-11T14:22:26.941Z,91570.56
2023-01-11T14:25:51.951Z,91578.22
2023-01-11T14:29:16.274Z,91578.47
2023-01-11T14:32:43.874Z,91581.56
2023-01-11T14:36:17.950Z,91584.94
2023-01-11T14:39:48.916Z,91586.81
2023-01-11T14:43:07.033Z,91587.56
2023-01-11T14:46:48.990Z,91591.22
2023-01-11T14:50:05.047Z,91592.16
2023-01-11T14:53:29.878Z,91594.78
2023-01-11T14:56:57.938Z,91591.28
2023-01-11T15:00:25.965Z,91604.56
2023-01-11T15:03:59.911Z,91604.94
2023-01-11T15:07:22.594Z,91605.28
2023-01-11T15:10:43.905Z,91607.75
2023-01-11T15:14:07.919Z,91597.97
2023-01-11T15:17:42.833Z,91605.16
2023-01-11T15:21:04.919Z,91601.41
2023-01-11T15:24:32.107Z,91606.88
2023-01-11T15:27:53.922Z,91608.13
2023-01-11T15:31:12.035Z,91607.16
2023-01-11T15:34:34.893Z,91602.13
2023-01-11T15:37:59.044Z,91605.00
2023-01-11T15:41:42.876Z,91600.94
2023-01-11T15:45:23.912Z,91608.44
2023-01-11T15:48:39.060Z,91613.69
2023-01-11T15:52:06.839Z,91622.00
2023-01-11T15:55:28.881Z,91619.81
2023-01-11T15:58:56.021Z,91614.34
2023-01-11T16:02:20.844Z,91622.63
2023-01-11T16:05:49.852Z,91626.47
2023-01-11T16:09:33.019Z,91629.44
2023-01-11T16:13:09.830Z,91639.09
2023-01-11T16:16:40.880Z,91637.41
2023-01-11T16:19:57.118Z,91645.84
2023-01-11T16:23:26.897Z,91639.47
2023-01-11T16:26:49.892Z,91654.50
2023-01-11T16:30:05.500Z,91637.69
2023-01-11T16:33:47.204Z,91661.38
2023-01-11T16:37:24.860Z,91651.78
2023-01-11T16:40:50.839Z,91659.41
2023-01-11T16:44:13.872Z,91656.47
2023-01-11T16:47:29.057Z,91664.94
2023-01-11T16:51:04.855Z,91671.72
2023-01-11T16:54:23.200Z,91677.31
2023-01-11T16:57:46.911Z,91672.38
2023-01-11T17:01:10.026Z,91668.25
2023-01-11T17:04:26.710Z,91677.59
2023-01-11T17:07:48.781Z,91679.63
2023-01-11T17:11:13.819Z,91689.19
2023-01-11T17:15:01.841Z,91688.91
2023-01-11T17:18:17.563Z,91693.41
2023-01-11T17:21:39.808Z,91695.25
2023-01-11T17:25:03.845Z,91699.00
2023-01-11T17:28:32.816Z,91694.09
2023-01-11T17:31:54.832Z,91702.16
2023-01-11T17:35:20.153Z,91701.16
2023-01-11T17:38:41.818Z,91696.44
2023-01-11T17:42:19.963Z,91691.94
2023-01-11T17:45:42.933Z,91698.72
2023-01-11T17:48:58.959Z,91702.16
2023-01-11T17:52:26.819Z,91700.06
2023-01-11T17:55:48.783Z,91707.25
2023-01-11T17:59:28.813Z,91710.50
2023-01-11T18:02:45.946Z,91717.28
2023-01-11T18:06:16.784Z,91708.94
2023-01-11T18:09:42.826Z,91715.69
2023-01-11T18:13:05.759Z,91716.19
2023-01-11T18:16:24.196Z,91709.31
2023-01-11T18:19:47.761Z,91705.00
2023-01-11T18:23:09.807Z,91704.53
2023-01-11T18:26:35.770Z,91704.22
2023-01-11T18:29:57.764Z,91715.22
2023-01-11T18:33:25.764Z,91710.13
2023-01-11T18:36:47.810Z,91718.25
2023-01-11T18:40:03.350Z,91723.19
2023-01-11T18:43:24.788Z,91717.09
2023-01-11T18:46:46.779Z,91720.91
2023-01-11T18:50:08.749Z,91719.25
2023-01-11T18:53:30.775Z,91732.31
2023-01-11T18:56:45.864Z,91727.59
2023-01-11T19:00:07.764Z,91728.56
2023-01-11T19:03:29.761Z,91735.34
2023-01-11T19:06:44.984Z,91737.53
2023-01-11T19:10:06.733Z,91751.25
2023-01-11T19:13:29.763Z,91750.97
2023-01-11T19:16:44.852Z,91753.13
2023-01-11T19:20:06.786Z,91761.28
2023-01-11T19:23:28.774Z,91755.56
2023-01-11T19:26:43.972Z,91761.09
2023-01-11T19:30:05.774Z,91763.97
2023-01-11T19:33:27.708Z,91769.97
2023-01-11T19:36:42.867Z,91774.66
2023-01-11T19:40:04.748Z,91778.50
2023-01-11T19:43:26.762Z,91776.91
2023-01-11T19:46:42.047Z,91775.66
2023-01-11T19:50:05.728Z,91778.59
2023-01-11T19:53:20.931Z,91777.22
2023-01-11T19:56:42.710Z,91776.13
2023-01-11T20:00:04.760Z,91778.31
2023-01-11T20:03:22.813Z,91779.00
2023-01-11T20:06:48.736Z,91784.31
2023-01-11T20:10:10.721Z,91775.16
2023-01-11T20:13:25.976Z,91775.06
2023-01-11T20:16:47.723Z,91777.34
2023-01-11T20:20:09.694Z,91775.72
2023-01-11T20:23:32.711Z,91778.31
2023-01-11T20:26:47.976Z,91771.53
2023-01-11T20:30:09.703Z,91771.44
2023-01-11T20:33:34.712Z,91775.44
2023-01-11T20:36:56.709Z,91772.31
2023-01-11T20:40:14.240Z,91768.56
2023-01-11T20:43:35.697Z,91766.31
2023-01-11T20:46:58.703Z,91771.91
2023-01-11T20:50:13.815Z,91769.16
2023-01-11T20:53:35.685Z,91766.22
2023-01-11T20:56:50.801Z,91777.59
2023-01-11T21:00:15.687Z,91775.44
2023-01-11T21:03:37.692Z,91773.88
2023-01-11T21:06:52.887Z,91788.13
2023-01-11T21:10:15.688Z,91787.44
2023-01-11T21:13:37.680Z,91788.84
2023-01-11T21:16:55.206Z,91779.78
2023-01-11T21:20:16.662Z,91784.00
2023-01-11T21:23:38.682Z,91793.16
2023-01-11T21:26:53.983Z,91797.09
2023-01-11T21:30:15.675Z,91791.28
2023-01-11T21:33:38.597Z,91799.34
2023-01-11T21:36:53.772Z,91799.94
2023-01-11T21:40:15.641Z,91785.56
2023-01-11T21:43:30.768Z,91775.53
2023-01-11T21:46:52.710Z,91780.56
2023-01-11T21:50:14.665Z,91769.25
2023-01-11T21:53:37.703Z,91765.59
2023-01-11T21:56:59.635Z,91772.09
2023-01-11T22:00:21.628Z,91773.47
2023-01-11T22:03:43.681Z,91774.69
2023-01-11T22:07:06.633Z,91773.47
2023-01-11T22:10:28.667Z,91774.09
2023-01-11T22:13:44.010Z,91764.53
2023-01-11T22:17:05.629Z,91781.81
2023-01-11T22:20:27.651Z,91781.34
2023-01-11T22:23:42.738Z,91782.22
2023-01-11T22:27:04.697Z,91773.38
2023-01-11T22:30:19.825Z,91765.81
2023-01-11T22:33:42.624Z,91770.56
2023-01-11T22:37:04.657Z,91768.00
2023-01-11T22:40:26.590Z,91760.69
2023-01-11T22:43:49.634Z,91752.34
2023-01-11T22:47:11.635Z,91756.31
2023-01-11T22:50:33.627Z,91744.00
2023-01-11T22:53:56.590Z,91740.16
2023-01-11T22:57:18.614Z,91751.38
2023-01-11T23:00:40.651Z,91750.66
2023-01-11T23:03:55.781Z,91747.34
2023-01-11T23:07:17.619Z,91747.84
2023-01-11T23:10:32.676Z,91745.25
2023-01-11T23:14:08.623Z,91734.06
2023-01-11T23:17:30.561Z,91737.81
2023-01-11T23:20:45.992Z,91736.59
2023-01-11T23:24:07.620Z,91730.31
2023-01-11T23:27:22.828Z,91730.72
2023-01-11T23:30:44.549Z,91733.06
2023-01-11T23:34:07.601Z,91729.44
2023-01-11T23:37:22.736Z,91738.56
2023-01-11T23:41:02.547Z,91744.59
2023-01-11T23:44:25.584Z,91752.75
2023-01-11T23:47:47.617Z,91758.66
2023-01-11T23:51:16.573Z,91759.13
2023-01-11T23:54:39.594Z,91755.69
2023-01-11T23:58:16.542Z,91752.34
